sensor_id;sensor_type;location;lat;lon;timestamp;P1;durP1;ratioP1;P2;durP2;ratioP2
47784;SDS011;35233;55.686;37.848;2023-07-24T00:01:01;4.40;;;2.75;;
47784;SDS011;35233;55.686;37.848;2023-07-24T00:03:27;5.68;;;2.92;;
47784;SDS011;35233;55.686;37.848;2023-07-24T00:05:52;3.97;;;3.10;;
47784;SDS011;35233;55.686;37.848;2023-07-24T00:08:18;5.43;;;3.20;;
47784;SDS011;35233;55.686;37.848;2023-07-24T00:10:43;4.47;;;3.20;;
47784;SDS011;35233;55.686;37.848;2023-07-24T00:13:09;4.00;;;2.95;;
47784;SDS011;35233;55.686;37.848;2023-07-24T00:15:34;4.63;;;2.90;;
47784;SDS011;35233;55.686;37.848;2023-07-24T00:18:00;3.90;;;3.20;;
47784;SDS011;35233;55.686;37.848;2023-07-24T00:20:25;5.07;;;3.10;;
47784;SDS011;35233;55.686;37.848;2023-07-24T00:22:51;4.00;;;3.10;;
47784;SDS011;35233;55.686;37.848;2023-07-24T00:25:16;4.60;;;3.13;;
47784;SDS011;35233;55.686;37.848;2023-07-24T00:27:42;4.03;;;3.20;;
47784;SDS011;35233;55.686;37.848;2023-07-24T00:30:07;4.38;;;3.20;;
47784;SDS011;35233;55.686;37.848;2023-07-24T00:32:33;4.90;;;3.17;;
47784;SDS011;35233;55.686;37.848;2023-07-24T00:34:59;4.40;;;3.03;;
47784;SDS011;35233;55.686;37.848;2023-07-24T00:37:24;3.95;;;2.90;;
47784;SDS011;35233;55.686;37.848;2023-07-24T00:39:50;4.15;;;3.03;;
47784;SDS011;35233;55.686;37.848;2023-07-24T00:42:15;3.97;;;3.00;;
47784;SDS011;35233;55.686;37.848;2023-07-24T00:44:41;3.78;;;2.92;;
47784;SDS011;35233;55.686;37.848;2023-07-24T00:47:07;5.00;;;2.97;;
47784;SDS011;35233;55.686;37.848;2023-07-24T00:49:32;3.40;;;2.80;;
47784;SDS011;35233;55.686;37.848;2023-07-24T00:51:58;3.60;;;2.72;;
47784;SDS011;35233;55.686;37.848;2023-07-24T00:54:24;3.40;;;2.65;;
47784;SDS011;35233;55.686;37.848;2023-07-24T00:56:50;4.13;;;2.90;;
47784;SDS011;35233;55.686;37.848;2023-07-24T00:59:16;4.28;;;2.70;;
47784;SDS011;35233;55.686;37.848;2023-07-24T01:01:42;3.55;;;2.67;;
47784;SDS011;35233;55.686;37.848;2023-07-24T01:04:08;3.28;;;2.65;;
47784;SDS011;35233;55.686;37.848;2023-07-24T01:06:33;4.53;;;2.83;;
47784;SDS011;35233;55.686;37.848;2023-07-24T01:08:59;3.00;;;2.50;;
47784;SDS011;35233;55.686;37.848;2023-07-24T01:11:27;3.40;;;2.60;;
47784;SDS011;35233;55.686;37.848;2023-07-24T01:13:58;3.85;;;3.00;;
47784;SDS011;35233;55.686;37.848;2023-07-24T01:16:32;3.60;;;2.63;;
47784;SDS011;35233;55.686;37.848;2023-07-24T01:19:01;4.35;;;2.88;;
47784;SDS011;35233;55.686;37.848;2023-07-24T01:24:29;3.60;;;2.50;;
47784;SDS011;35233;55.686;37.848;2023-07-24T01:26:59;3.00;;;2.50;;
47784;SDS011;35233;55.686;37.848;2023-07-24T01:29:24;3.67;;;2.65;;
47784;SDS011;35233;55.686;37.848;2023-07-24T01:31:50;3.25;;;2.58;;
47784;SDS011;35233;55.686;37.848;2023-07-24T01:34:15;3.67;;;2.67;;
47784;SDS011;35233;55.686;37.848;2023-07-24T01:36:41;2.85;;;2.40;;
47784;SDS011;35233;55.686;37.848;2023-07-24T01:39:06;3.88;;;2.83;;
47784;SDS011;35233;55.686;37.848;2023-07-24T01:41:33;3.65;;;2.63;;
47784;SDS011;35233;55.686;37.848;2023-07-24T01:43:58;3.90;;;2.55;;
47784;SDS011;35233;55.686;37.848;2023-07-24T01:46:24;3.65;;;2.80;;
47784;SDS011;35233;55.686;37.848;2023-07-24T01:48:50;3.00;;;2.45;;
47784;SDS011;35233;55.686;37.848;2023-07-24T01:51:17;3.67;;;2.63;;
47784;SDS011;35233;55.686;37.848;2023-07-24T01:53:43;4.10;;;2.65;;
47784;SDS011;35233;55.686;37.848;2023-07-24T01:56:08;3.55;;;2.60;;
47784;SDS011;35233;55.686;37.848;2023-07-24T01:58:34;3.47;;;2.67;;
47784;SDS011;35233;55.686;37.848;2023-07-24T02:00:59;4.15;;;2.75;;
47784;SDS011;35233;55.686;37.848;2023-07-24T02:03:24;3.38;;;2.50;;
47784;SDS011;35233;55.686;37.848;2023-07-24T02:05:50;3.25;;;2.45;;
47784;SDS011;35233;55.686;37.848;2023-07-24T02:08:16;3.75;;;2.80;;
47784;SDS011;35233;55.686;37.848;2023-07-24T02:10:42;4.38;;;2.78;;
47784;SDS011;35233;55.686;37.848;2023-07-24T02:13:07;3.17;;;2.60;;
47784;SDS011;35233;55.686;37.848;2023-07-24T02:15:34;3.22;;;2.55;;
47784;SDS011;35233;55.686;37.848;2023-07-24T02:18:00;3.30;;;2.70;;
47784;SDS011;35233;55.686;37.848;2023-07-24T02:20:25;4.18;;;2.90;;
47784;SDS011;35233;55.686;37.848;2023-07-24T02:22:50;3.38;;;2.80;;
47784;SDS011;35233;55.686;37.848;2023-07-24T02:25:16;4.20;;;3.00;;
47784;SDS011;35233;55.686;37.848;2023-07-24T02:27:42;4.47;;;2.90;;
47784;SDS011;35233;55.686;37.848;2023-07-24T02:30:07;3.83;;;2.80;;
47784;SDS011;35233;55.686;37.848;2023-07-24T02:32:33;3.78;;;2.80;;
47784;SDS011;35233;55.686;37.848;2023-07-24T02:34:58;3.88;;;2.97;;
47784;SDS011;35233;55.686;37.848;2023-07-24T02:37:24;3.33;;;2.80;;
47784;SDS011;35233;55.686;37.848;2023-07-24T02:39:49;3.90;;;2.78;;
47784;SDS011;35233;55.686;37.848;2023-07-24T02:42:18;3.60;;;2.72;;
47784;SDS011;35233;55.686;37.848;2023-07-24T02:44:43;3.47;;;2.60;;
47784;SDS011;35233;55.686;37.848;2023-07-24T02:47:08;3.58;;;2.80;;
47784;SDS011;35233;55.686;37.848;2023-07-24T02:49:34;4.43;;;2.80;;
47784;SDS011;35233;55.686;37.848;2023-07-24T02:51:59;3.78;;;2.85;;
47784;SDS011;35233;55.686;37.848;2023-07-24T02:54:25;3.55;;;2.38;;
47784;SDS011;35233;55.686;37.848;2023-07-24T02:56:51;3.53;;;2.70;;
47784;SDS011;35233;55.686;37.848;2023-07-24T02:59:17;3.33;;;2.63;;
47784;SDS011;35233;55.686;37.848;2023-07-24T03:01:42;4.13;;;2.60;;
47784;SDS011;35233;55.686;37.848;2023-07-24T03:04:08;3.83;;;2.60;;
47784;SDS011;35233;55.686;37.848;2023-07-24T03:06:34;3.60;;;2.70;;
47784;SDS011;35233;55.686;37.848;2023-07-24T03:09:00;2.80;;;2.38;;
47784;SDS011;35233;55.686;37.848;2023-07-24T03:11:26;3.42;;;2.53;;
47784;SDS011;35233;55.686;37.848;2023-07-24T03:13:51;3.50;;;2.63;;
47784;SDS011;35233;55.686;37.848;2023-07-24T03:16:17;3.42;;;2.58;;
47784;SDS011;35233;55.686;37.848;2023-07-24T03:18:44;3.63;;;2.70;;
47784;SDS011;35233;55.686;37.848;2023-07-24T03:21:10;4.30;;;2.60;;
47784;SDS011;35233;55.686;37.848;2023-07-24T03:23:35;3.45;;;2.40;;
47784;SDS011;35233;55.686;37.848;2023-07-24T03:26:01;3.45;;;2.60;;
47784;SDS011;35233;55.686;37.848;2023-07-24T03:28:26;3.97;;;3.00;;
47784;SDS011;35233;55.686;37.848;2023-07-24T03:30:52;4.05;;;3.03;;
47784;SDS011;35233;55.686;37.848;2023-07-24T03:33:17;3.22;;;2.47;;
47784;SDS011;35233;55.686;37.848;2023-07-24T03:35:43;3.08;;;2.53;;
47784;SDS011;35233;55.686;37.848;2023-07-24T03:38:08;3.20;;;2.50;;
47784;SDS011;35233;55.686;37.848;2023-07-24T03:40:33;2.78;;;2.33;;
47784;SDS011;35233;55.686;37.848;2023-07-24T03:42:59;3.10;;;2.65;;
47784;SDS011;35233;55.686;37.848;2023-07-24T03:45:24;3.38;;;2.60;;
47784;SDS011;35233;55.686;37.848;2023-07-24T03:47:50;3.28;;;2.60;;
47784;SDS011;35233;55.686;37.848;2023-07-24T03:50:16;4.53;;;2.75;;
47784;SDS011;35233;55.686;37.848;2023-07-24T03:52:42;3.45;;;2.75;;
47784;SDS011;35233;55.686;37.848;2023-07-24T03:55:07;3.47;;;2.60;;
47784;SDS011;35233;55.686;37.848;2023-07-24T03:57:33;3.72;;;2.75;;
47784;SDS011;35233;55.686;37.848;2023-07-24T03:59:58;4.55;;;2.47;;
47784;SDS011;35233;55.686;37.848;2023-07-24T04:02:24;4.70;;;2.60;;
47784;SDS011;35233;55.686;37.848;2023-07-24T04:04:49;4.10;;;2.60;;
47784;SDS011;35233;55.686;37.848;2023-07-24T04:07:15;4.43;;;2.60;;
47784;SDS011;35233;55.686;37.848;2023-07-24T04:09:40;3.70;;;2.75;;
47784;SDS011;35233;55.686;37.848;2023-07-24T04:12:06;3.17;;;2.70;;
47784;SDS011;35233;55.686;37.848;2023-07-24T04:14:31;2.88;;;2.42;;
47784;SDS011;35233;55.686;37.848;2023-07-24T04:16:57;3.33;;;2.40;;
47784;SDS011;35233;55.686;37.848;2023-07-24T04:19:22;3.70;;;3.00;;
47784;SDS011;35233;55.686;37.848;2023-07-24T04:21:48;2.95;;;2.33;;
47784;SDS011;35233;55.686;37.848;2023-07-24T04:24:13;3.28;;;2.45;;
47784;SDS011;35233;55.686;37.848;2023-07-24T04:26:38;3.38;;;2.42;;
47784;SDS011;35233;55.686;37.848;2023-07-24T04:29:05;3.30;;;2.50;;
47784;SDS011;35233;55.686;37.848;2023-07-24T04:31:31;4.50;;;2.63;;
47784;SDS011;35233;55.686;37.848;2023-07-24T04:33:56;3.70;;;2.50;;
47784;SDS011;35233;55.686;37.848;2023-07-24T04:36:22;3.65;;;2.75;;
47784;SDS011;35233;55.686;37.848;2023-07-24T04:38:47;3.50;;;2.60;;
47784;SDS011;35233;55.686;37.848;2023-07-24T04:41:12;3.80;;;2.40;;
47784;SDS011;35233;55.686;37.848;2023-07-24T04:43:38;3.05;;;2.40;;
47784;SDS011;35233;55.686;37.848;2023-07-24T04:46:03;3.58;;;2.70;;
47784;SDS011;35233;55.686;37.848;2023-07-24T04:48:29;4.30;;;2.40;;
47784;SDS011;35233;55.686;37.848;2023-07-24T04:50:55;2.70;;;2.30;;
47784;SDS011;35233;55.686;37.848;2023-07-24T04:53:21;2.97;;;2.65;;
47784;SDS011;35233;55.686;37.848;2023-07-24T04:55:46;3.30;;;2.63;;
47784;SDS011;35233;55.686;37.848;2023-07-24T04:58:12;4.47;;;2.47;;
47784;SDS011;35233;55.686;37.848;2023-07-24T05:00:37;3.13;;;2.45;;
47784;SDS011;35233;55.686;37.848;2023-07-24T05:03:03;3.80;;;2.60;;
47784;SDS011;35233;55.686;37.848;2023-07-24T05:05:28;3.33;;;2.47;;
47784;SDS011;35233;55.686;37.848;2023-07-24T05:07:54;5.03;;;2.70;;
47784;SDS011;35233;55.686;37.848;2023-07-24T05:10:19;3.83;;;2.55;;
47784;SDS011;35233;55.686;37.848;2023-07-24T05:12:45;3.10;;;2.45;;
47784;SDS011;35233;55.686;37.848;2023-07-24T05:15:10;3.20;;;2.42;;
47784;SDS011;35233;55.686;37.848;2023-07-24T05:17:36;4.20;;;2.80;;
47784;SDS011;35233;55.686;37.848;2023-07-24T05:20:01;3.95;;;2.50;;
47784;SDS011;35233;55.686;37.848;2023-07-24T05:22:27;3.40;;;2.45;;
47784;SDS011;35233;55.686;37.848;2023-07-24T05:24:52;3.15;;;2.50;;
47784;SDS011;35233;55.686;37.848;2023-07-24T05:27:18;2.60;;;2.30;;
47784;SDS011;35233;55.686;37.848;2023-07-24T05:29:43;3.15;;;2.38;;
47784;SDS011;35233;55.686;37.848;2023-07-24T05:32:09;3.17;;;2.33;;
47784;SDS011;35233;55.686;37.848;2023-07-24T05:34:35;3.33;;;2.55;;
47784;SDS011;35233;55.686;37.848;2023-07-24T05:37:00;3.20;;;2.38;;
47784;SDS011;35233;55.686;37.848;2023-07-24T05:39:26;3.17;;;2.40;;
47784;SDS011;35233;55.686;37.848;2023-07-24T05:41:51;2.50;;;2.20;;
47784;SDS011;35233;55.686;37.848;2023-07-24T05:44:17;2.95;;;2.13;;
47784;SDS011;35233;55.686;37.848;2023-07-24T05:46:42;2.70;;;2.28;;
47784;SDS011;35233;55.686;37.848;2023-07-24T05:49:07;2.90;;;2.17;;
47784;SDS011;35233;55.686;37.848;2023-07-24T05:51:33;3.45;;;2.50;;
47784;SDS011;35233;55.686;37.848;2023-07-24T05:53:58;3.17;;;2.20;;
47784;SDS011;35233;55.686;37.848;2023-07-24T05:56:24;3.05;;;2.15;;
47784;SDS011;35233;55.686;37.848;2023-07-24T05:58:49;2.17;;;1.98;;
47784;SDS011;35233;55.686;37.848;2023-07-24T06:01:15;3.28;;;2.30;;
47784;SDS011;35233;55.686;37.848;2023-07-24T06:03:40;3.10;;;2.50;;
47784;SDS011;35233;55.686;37.848;2023-07-24T06:06:06;2.60;;;2.30;;
47784;SDS011;35233;55.686;37.848;2023-07-24T06:08:31;3.05;;;2.35;;
47784;SDS011;35233;55.686;37.848;2023-07-24T06:10:57;3.10;;;2.10;;
47784;SDS011;35233;55.686;37.848;2023-07-24T06:13:22;2.17;;;1.98;;
47784;SDS011;35233;55.686;37.848;2023-07-24T06:15:48;2.80;;;2.22;;
47784;SDS011;35233;55.686;37.848;2023-07-24T06:18:13;3.35;;;2.35;;
47784;SDS011;35233;55.686;37.848;2023-07-24T06:20:39;2.80;;;2.30;;
47784;SDS011;35233;55.686;37.848;2023-07-24T06:23:05;4.13;;;2.45;;
47784;SDS011;35233;55.686;37.848;2023-07-24T06:25:30;2.95;;;2.13;;
47784;SDS011;35233;55.686;37.848;2023-07-24T06:27:56;2.70;;;2.20;;
47784;SDS011;35233;55.686;37.848;2023-07-24T06:30:22;2.50;;;2.15;;
47784;SDS011;35233;55.686;37.848;2023-07-24T06:32:48;2.25;;;1.77;;
47784;SDS011;35233;55.686;37.848;2023-07-24T06:35:13;2.70;;;2.10;;
47784;SDS011;35233;55.686;37.848;2023-07-24T06:37:39;2.30;;;1.80;;
47784;SDS011;35233;55.686;37.848;2023-07-24T06:40:05;3.28;;;2.30;;
47784;SDS011;35233;55.686;37.848;2023-07-24T06:42:31;2.63;;;2.30;;
47784;SDS011;35233;55.686;37.848;2023-07-24T06:44:57;2.47;;;1.98;;
47784;SDS011;35233;55.686;37.848;2023-07-24T06:47:22;2.88;;;1.80;;
47784;SDS011;35233;55.686;37.848;2023-07-24T06:49:48;2.30;;;2.00;;
47784;SDS011;35233;55.686;37.848;2023-07-24T06:52:13;2.90;;;1.88;;
47784;SDS011;35233;55.686;37.848;2023-07-24T06:54:39;2.45;;;2.20;;
47784;SDS011;35233;55.686;37.848;2023-07-24T06:57:04;2.17;;;1.90;;
47784;SDS011;35233;55.686;37.848;2023-07-24T06:59:30;2.22;;;1.83;;
47784;SDS011;35233;55.686;37.848;2023-07-24T07:01:55;2.55;;;2.10;;
47784;SDS011;35233;55.686;37.848;2023-07-24T07:04:21;2.22;;;1.77;;
47784;SDS011;35233;55.686;37.848;2023-07-24T07:06:46;1.92;;;1.75;;
47784;SDS011;35233;55.686;37.848;2023-07-24T07:09:11;4.07;;;2.30;;
47784;SDS011;35233;55.686;37.848;2023-07-24T07:11:37;3.03;;;2.20;;
47784;SDS011;35233;55.686;37.848;2023-07-24T07:14:03;2.40;;;1.90;;
47784;SDS011;35233;55.686;37.848;2023-07-24T07:16:29;2.17;;;1.92;;
47784;SDS011;35233;55.686;37.848;2023-07-24T07:18:54;2.33;;;1.88;;
47784;SDS011;35233;55.686;37.848;2023-07-24T07:21:20;3.45;;;2.20;;
47784;SDS011;35233;55.686;37.848;2023-07-24T07:23:45;2.72;;;2.00;;
47784;SDS011;35233;55.686;37.848;2023-07-24T07:26:11;2.38;;;2.08;;
47784;SDS011;35233;55.686;37.848;2023-07-24T07:28:36;1.92;;;1.70;;
47784;SDS011;35233;55.686;37.848;2023-07-24T07:31:03;2.85;;;2.10;;
47784;SDS011;35233;55.686;37.848;2023-07-24T07:33:28;2.55;;;2.00;;
47784;SDS011;35233;55.686;37.848;2023-07-24T07:35:54;2.47;;;1.77;;
47784;SDS011;35233;55.686;37.848;2023-07-24T07:38:20;2.15;;;1.85;;
47784;SDS011;35233;55.686;37.848;2023-07-24T07:40:47;2.65;;;2.00;;
47784;SDS011;35233;55.686;37.848;2023-07-24T07:43:13;2.08;;;1.88;;
47784;SDS011;35233;55.686;37.848;2023-07-24T07:45:38;2.22;;;1.88;;
47784;SDS011;35233;55.686;37.848;2023-07-24T07:48:04;2.40;;;2.00;;
47784;SDS011;35233;55.686;37.848;2023-07-24T07:50:30;2.13;;;1.88;;
47784;SDS011;35233;55.686;37.848;2023-07-24T07:52:56;2.10;;;1.85;;
47784;SDS011;35233;55.686;37.848;2023-07-24T07:55:21;2.60;;;2.00;;
47784;SDS011;35233;55.686;37.848;2023-07-24T07:57:46;2.47;;;1.88;;
47784;SDS011;35233;55.686;37.848;2023-07-24T08:00:12;2.58;;;2.10;;
47784;SDS011;35233;55.686;37.848;2023-07-24T08:02:38;1.88;;;1.73;;
47784;SDS011;35233;55.686;37.848;2023-07-24T08:05:08;2.35;;;1.85;;
47784;SDS011;35233;55.686;37.848;2023-07-24T08:07:34;2.55;;;1.83;;
47784;SDS011;35233;55.686;37.848;2023-07-24T08:10:00;2.70;;;2.03;;
47784;SDS011;35233;55.686;37.848;2023-07-24T08:12:25;2.17;;;1.88;;
47784;SDS011;35233;55.686;37.848;2023-07-24T08:14:51;2.30;;;1.90;;
47784;SDS011;35233;55.686;37.848;2023-07-24T08:17:16;2.35;;;1.88;;
47784;SDS011;35233;55.686;37.848;2023-07-24T08:19:43;2.03;;;1.73;;
47784;SDS011;35233;55.686;37.848;2023-07-24T08:22:09;2.00;;;1.80;;
47784;SDS011;35233;55.686;37.848;2023-07-24T08:24:34;2.58;;;2.10;;
47784;SDS011;35233;55.686;37.848;2023-07-24T08:27:00;2.08;;;1.88;;
47784;SDS011;35233;55.686;37.848;2023-07-24T08:29:26;2.45;;;1.90;;
47784;SDS011;35233;55.686;37.848;2023-07-24T08:31:51;2.08;;;1.88;;
47784;SDS011;35233;55.686;37.848;2023-07-24T08:34:17;2.50;;;1.88;;
47784;SDS011;35233;55.686;37.848;2023-07-24T08:36:43;1.95;;;1.70;;
47784;SDS011;35233;55.686;37.848;2023-07-24T08:39:08;2.13;;;1.88;;
47784;SDS011;35233;55.686;37.848;2023-07-24T08:41:33;2.45;;;1.73;;
47784;SDS011;35233;55.686;37.848;2023-07-24T08:44:00;2.65;;;1.90;;
47784;SDS011;35233;55.686;37.848;2023-07-24T08:46:26;2.90;;;1.98;;
47784;SDS011;35233;55.686;37.848;2023-07-24T08:48:52;2.28;;;1.83;;
47784;SDS011;35233;55.686;37.848;2023-07-24T08:51:19;2.25;;;1.90;;
47784;SDS011;35233;55.686;37.848;2023-07-24T08:53:47;2.33;;;2.03;;
47784;SDS011;35233;55.686;37.848;2023-07-24T08:56:14;2.28;;;2.05;;
47784;SDS011;35233;55.686;37.848;2023-07-24T08:58:39;1.90;;;1.70;;
47784;SDS011;35233;55.686;37.848;2023-07-24T09:01:05;1.85;;;1.75;;
47784;SDS011;35233;55.686;37.848;2023-07-24T09:03:32;2.30;;;1.88;;
47784;SDS011;35233;55.686;37.848;2023-07-24T09:05:58;3.00;;;2.03;;
47784;SDS011;35233;55.686;37.848;2023-07-24T09:08:39;2.00;;;1.80;;
47784;SDS011;35233;55.686;37.848;2023-07-24T09:11:06;2.38;;;2.00;;
47784;SDS011;35233;55.686;37.848;2023-07-24T09:13:35;2.47;;;2.00;;
47784;SDS011;35233;55.686;37.848;2023-07-24T09:16:02;2.53;;;1.90;;
47784;SDS011;35233;55.686;37.848;2023-07-24T09:18:38;2.45;;;1.92;;
47784;SDS011;35233;55.686;37.848;2023-07-24T09:21:07;2.08;;;1.77;;
47784;SDS011;35233;55.686;37.848;2023-07-24T09:23:34;1.73;;;1.58;;
47784;SDS011;35233;55.686;37.848;2023-07-24T09:26:04;1.88;;;1.73;;
47784;SDS011;35233;55.686;37.848;2023-07-24T09:28:30;2.30;;;1.77;;
47784;SDS011;35233;55.686;37.848;2023-07-24T09:30:57;2.90;;;2.17;;
47784;SDS011;35233;55.686;37.848;2023-07-24T09:36:02;2.15;;;1.85;;
47784;SDS011;35233;55.686;37.848;2023-07-24T09:38:28;2.28;;;1.83;;
47784;SDS011;35233;55.686;37.848;2023-07-24T09:40:55;3.35;;;2.15;;
47784;SDS011;35233;55.686;37.848;2023-07-24T09:43:21;2.38;;;1.90;;
47784;SDS011;35233;55.686;37.848;2023-07-24T09:45:48;2.65;;;2.03;;
47784;SDS011;35233;55.686;37.848;2023-07-24T09:48:15;2.35;;;1.85;;
47784;SDS011;35233;55.686;37.848;2023-07-24T09:50:42;2.42;;;1.98;;
47784;SDS011;35233;55.686;37.848;2023-07-24T09:53:17;2.78;;;2.33;;
47784;SDS011;35233;55.686;37.848;2023-07-24T09:55:56;2.85;;;1.95;;
47784;SDS011;35233;55.686;37.848;2023-07-24T09:58:24;2.60;;;1.83;;
47784;SDS011;35233;55.686;37.848;2023-07-24T10:00:51;1.73;;;1.63;;
47784;SDS011;35233;55.686;37.848;2023-07-24T10:03:18;3.00;;;1.83;;
47784;SDS011;35233;55.686;37.848;2023-07-24T10:05:45;2.25;;;1.90;;
47784;SDS011;35233;55.686;37.848;2023-07-24T10:08:12;2.47;;;2.08;;
47784;SDS011;35233;55.686;37.848;2023-07-24T10:10:39;2.22;;;1.90;;
47784;SDS011;35233;55.686;37.848;2023-07-24T10:13:05;1.95;;;1.80;;
47784;SDS011;35233;55.686;37.848;2023-07-24T10:15:32;1.77;;;1.63;;
47784;SDS011;35233;55.686;37.848;2023-07-24T10:18:04;2.20;;;1.83;;
47784;SDS011;35233;55.686;37.848;2023-07-24T10:20:34;3.22;;;2.10;;
47784;SDS011;35233;55.686;37.848;2023-07-24T10:23:04;3.25;;;2.13;;
47784;SDS011;35233;55.686;37.848;2023-07-24T10:25:31;2.72;;;1.90;;
47784;SDS011;35233;55.686;37.848;2023-07-24T10:28:15;2.55;;;2.05;;
47784;SDS011;35233;55.686;37.848;2023-07-24T10:30:42;3.13;;;1.95;;
47784;SDS011;35233;55.686;37.848;2023-07-24T10:33:18;3.28;;;1.70;;
47784;SDS011;35233;55.686;37.848;2023-07-24T10:35:47;3.05;;;2.00;;
47784;SDS011;35233;55.686;37.848;2023-07-24T10:38:16;2.67;;;1.90;;
47784;SDS011;35233;55.686;37.848;2023-07-24T10:40:42;1.95;;;1.70;;
47784;SDS011;35233;55.686;37.848;2023-07-24T10:43:10;1.95;;;1.77;;
47784;SDS011;35233;55.686;37.848;2023-07-24T10:45:41;2.42;;;1.90;;
47784;SDS011;35233;55.686;37.848;2023-07-24T10:48:12;1.77;;;1.53;;
47784;SDS011;35233;55.686;37.848;2023-07-24T10:50:41;1.92;;;1.55;;
47784;SDS011;35233;55.686;37.848;2023-07-24T10:53:09;2.00;;;1.80;;
47784;SDS011;35233;55.686;37.848;2023-07-24T10:55:35;1.88;;;1.60;;
47784;SDS011;35233;55.686;37.848;2023-07-24T10:58:01;2.30;;;1.70;;
47784;SDS011;35233;55.686;37.848;2023-07-24T11:00:27;3.15;;;1.75;;
47784;SDS011;35233;55.686;37.848;2023-07-24T11:02:53;1.77;;;1.50;;
47784;SDS011;35233;55.686;37.848;2023-07-24T11:05:20;2.03;;;1.83;;
47784;SDS011;35233;55.686;37.848;2023-07-24T11:07:47;1.70;;;1.55;;
47784;SDS011;35233;55.686;37.848;2023-07-24T11:10:16;1.98;;;1.80;;
47784;SDS011;35233;55.686;37.848;2023-07-24T11:12:46;2.20;;;1.70;;
47784;SDS011;35233;55.686;37.848;2023-07-24T11:15:12;1.92;;;1.60;;
47784;SDS011;35233;55.686;37.848;2023-07-24T11:17:39;2.10;;;1.70;;
47784;SDS011;35233;55.686;37.848;2023-07-24T11:20:10;2.83;;;2.05;;
47784;SDS011;35233;55.686;37.848;2023-07-24T11:22:42;2.67;;;1.90;;
47784;SDS011;35233;55.686;37.848;2023-07-24T11:25:11;2.13;;;1.83;;
47784;SDS011;35233;55.686;37.848;2023-07-24T11:27:40;2.30;;;1.90;;
47784;SDS011;35233;55.686;37.848;2023-07-24T11:30:08;2.17;;;1.83;;
47784;SDS011;35233;55.686;37.848;2023-07-24T11:32:35;3.00;;;1.90;;
47784;SDS011;35233;55.686;37.848;2023-07-24T11:35:02;2.03;;;1.80;;
47784;SDS011;35233;55.686;37.848;2023-07-24T11:37:29;2.05;;;1.83;;
47784;SDS011;35233;55.686;37.848;2023-07-24T11:39:55;2.35;;;1.92;;
47784;SDS011;35233;55.686;37.848;2023-07-24T11:42:23;2.20;;;1.75;;
47784;SDS011;35233;55.686;37.848;2023-07-24T11:44:50;1.80;;;1.55;;
47784;SDS011;35233;55.686;37.848;2023-07-24T11:47:15;2.42;;;2.00;;
47784;SDS011;35233;55.686;37.848;2023-07-24T11:49:42;1.70;;;1.60;;
47784;SDS011;35233;55.686;37.848;2023-07-24T11:52:13;2.20;;;1.90;;
47784;SDS011;35233;55.686;37.848;2023-07-24T11:54:38;1.90;;;1.50;;
47784;SDS011;35233;55.686;37.848;2023-07-24T11:57:14;1.60;;;1.50;;
47784;SDS011;35233;55.686;37.848;2023-07-24T11:59:42;2.10;;;1.70;;
47784;SDS011;35233;55.686;37.848;2023-07-24T12:02:10;2.22;;;1.83;;
47784;SDS011;35233;55.686;37.848;2023-07-24T12:04:36;2.22;;;2.00;;
47784;SDS011;35233;55.686;37.848;2023-07-24T12:07:07;2.72;;;2.20;;
47784;SDS011;35233;55.686;37.848;2023-07-24T12:09:33;2.40;;;2.00;;
47784;SDS011;35233;55.686;37.848;2023-07-24T12:11:59;2.25;;;2.05;;
47784;SDS011;35233;55.686;37.848;2023-07-24T12:14:24;2.83;;;2.00;;
47784;SDS011;35233;55.686;37.848;2023-07-24T12:16:59;3.20;;;1.98;;
47784;SDS011;35233;55.686;37.848;2023-07-24T12:19:26;2.13;;;1.85;;
47784;SDS011;35233;55.686;37.848;2023-07-24T12:21:51;3.00;;;2.00;;
47784;SDS011;35233;55.686;37.848;2023-07-24T12:24:17;2.08;;;1.88;;
47784;SDS011;35233;55.686;37.848;2023-07-24T12:26:42;3.05;;;1.90;;
47784;SDS011;35233;55.686;37.848;2023-07-24T12:29:08;2.45;;;1.95;;
47784;SDS011;35233;55.686;37.848;2023-07-24T12:31:33;2.28;;;1.85;;
47784;SDS011;35233;55.686;37.848;2023-07-24T12:33:59;2.40;;;1.98;;
47784;SDS011;35233;55.686;37.848;2023-07-24T12:36:24;2.13;;;1.60;;
47784;SDS011;35233;55.686;37.848;2023-07-24T12:38:50;2.25;;;1.92;;
47784;SDS011;35233;55.686;37.848;2023-07-24T12:41:15;1.77;;;1.67;;
47784;SDS011;35233;55.686;37.848;2023-07-24T12:43:41;2.25;;;1.80;;
47784;SDS011;35233;55.686;37.848;2023-07-24T12:46:06;2.60;;;2.10;;
47784;SDS011;35233;55.686;37.848;2023-07-24T12:48:31;2.40;;;1.73;;
47784;SDS011;35233;55.686;37.848;2023-07-24T12:50:57;3.00;;;2.03;;
47784;SDS011;35233;55.686;37.848;2023-07-24T12:53:25;2.53;;;1.65;;
47784;SDS011;35233;55.686;37.848;2023-07-24T12:55:50;2.65;;;2.00;;
47784;SDS011;35233;55.686;37.848;2023-07-24T12:58:15;2.85;;;2.33;;
47784;SDS011;35233;55.686;37.848;2023-07-24T13:00:41;2.33;;;2.05;;
47784;SDS011;35233;55.686;37.848;2023-07-24T13:03:06;2.88;;;2.10;;
47784;SDS011;35233;55.686;37.848;2023-07-24T13:05:32;2.80;;;1.90;;
47784;SDS011;35233;55.686;37.848;2023-07-24T13:07:58;2.78;;;1.80;;
47784;SDS011;35233;55.686;37.848;2023-07-24T13:10:23;3.00;;;2.17;;
47784;SDS011;35233;55.686;37.848;2023-07-24T13:12:49;2.78;;;2.00;;
47784;SDS011;35233;55.686;37.848;2023-07-24T13:15:14;2.72;;;2.17;;
47784;SDS011;35233;55.686;37.848;2023-07-24T13:17:40;2.17;;;1.92;;
47784;SDS011;35233;55.686;37.848;2023-07-24T13:20:05;2.13;;;1.92;;
47784;SDS011;35233;55.686;37.848;2023-07-24T13:22:31;2.28;;;1.90;;
47784;SDS011;35233;55.686;37.848;2023-07-24T13:24:57;2.58;;;2.00;;
47784;SDS011;35233;55.686;37.848;2023-07-24T13:27:22;2.22;;;2.03;;
47784;SDS011;35233;55.686;37.848;2023-07-24T13:29:48;2.03;;;1.80;;
47784;SDS011;35233;55.686;37.848;2023-07-24T13:32:13;2.58;;;2.10;;
47784;SDS011;35233;55.686;37.848;2023-07-24T13:34:41;2.38;;;2.00;;
47784;SDS011;35233;55.686;37.848;2023-07-24T13:37:06;2.63;;;1.80;;
47784;SDS011;35233;55.686;37.848;2023-07-24T13:39:32;3.33;;;2.15;;
47784;SDS011;35233;55.686;37.848;2023-07-24T13:41:59;2.88;;;1.98;;
47784;SDS011;35233;55.686;37.848;2023-07-24T13:44:25;2.00;;;1.80;;
47784;SDS011;35233;55.686;37.848;2023-07-24T13:46:50;2.22;;;1.90;;
47784;SDS011;35233;55.686;37.848;2023-07-24T13:49:16;2.42;;;1.70;;
47784;SDS011;35233;55.686;37.848;2023-07-24T13:51:41;2.75;;;1.92;;
47784;SDS011;35233;55.686;37.848;2023-07-24T13:54:07;2.03;;;1.80;;
47784;SDS011;35233;55.686;37.848;2023-07-24T13:56:32;2.45;;;1.98;;
47784;SDS011;35233;55.686;37.848;2023-07-24T13:59:00;3.97;;;2.30;;
47784;SDS011;35233;55.686;37.848;2023-07-24T14:01:26;3.15;;;2.45;;
47784;SDS011;35233;55.686;37.848;2023-07-24T14:03:51;2.78;;;2.20;;
47784;SDS011;35233;55.686;37.848;2023-07-24T14:06:17;2.55;;;2.10;;
47784;SDS011;35233;55.686;37.848;2023-07-24T14:08:42;2.58;;;2.08;;
47784;SDS011;35233;55.686;37.848;2023-07-24T14:11:08;2.05;;;1.83;;
47784;SDS011;35233;55.686;37.848;2023-07-24T14:13:33;2.75;;;2.17;;
47784;SDS011;35233;55.686;37.848;2023-07-24T14:15:59;3.50;;;2.30;;
47784;SDS011;35233;55.686;37.848;2023-07-24T14:18:25;4.68;;;2.42;;
47784;SDS011;35233;55.686;37.848;2023-07-24T14:20:50;2.78;;;2.08;;
47784;SDS011;35233;55.686;37.848;2023-07-24T14:23:19;3.03;;;2.03;;
47784;SDS011;35233;55.686;37.848;2023-07-24T14:25:45;2.25;;;2.00;;
47784;SDS011;35233;55.686;37.848;2023-07-24T14:28:10;2.75;;;1.80;;
47784;SDS011;35233;55.686;37.848;2023-07-24T14:30:35;2.80;;;2.08;;
47784;SDS011;35233;55.686;37.848;2023-07-24T14:33:01;2.70;;;2.03;;